createdAt,value
2023-07-14T00:01:27.903Z,100297.03
2023-07-14T00:03:57.422Z,100299.28
2023-07-14T00:06:26.136Z,100303.50
2023-07-14T00:08:54.906Z,100303.67
2023-07-14T00:11:24.840Z,100304.61
2023-07-14T00:13:54.827Z,100300.61
2023-07-14T00:16:26.538Z,100300.48
2023-07-14T00:18:55.368Z,100302.61
2023-07-14T00:21:26.118Z,100297.42
2023-07-14T00:23:56.502Z,100302.96
2023-07-14T00:26:25.259Z,100303.98
2023-07-14T00:28:54.287Z,100306.86
2023-07-14T00:31:24.555Z,100300.61
2023-07-14T00:33:55.204Z,100304.62
2023-07-14T00:36:25.257Z,100305.20
2023-07-14T00:38:54.979Z,100307.98
2023-07-14T00:41:25.675Z,100313.44
2023-07-14T00:43:54.380Z,100309.45
2023-07-14T00:46:30.768Z,100302.55
2023-07-14T00:49:08.634Z,100300.25
2023-07-14T00:51:37.949Z,100303.16
2023-07-14T00:54:08.883Z,100310.95
2023-07-14T00:56:40.003Z,100309.39
2023-07-14T00:59:12.916Z,100306.73
2023-07-14T01:01:59.736Z,100308.77
2023-07-14T01:04:28.568Z,100306.60
2023-07-14T01:06:57.354Z,100311.92
2023-07-14T01:09:26.163Z,100307.02
2023-07-14T01:11:55.988Z,100310.78
2023-07-14T01:14:27.284Z,100309.84
2023-07-14T01:16:57.283Z,100313.23
2023-07-14T01:19:27.521Z,100314.92
2023-07-14T01:22:00.720Z,100312.16
2023-07-14T01:24:33.385Z,100314.82
2023-07-14T01:27:03.634Z,100314.94
2023-07-14T01:29:33.354Z,100316.59
2023-07-14T01:32:03.298Z,100322.30
2023-07-14T01:34:32.067Z,100325.93
2023-07-14T01:37:00.965Z,100327.61
2023-07-14T01:39:30.247Z,100327.52
2023-07-14T01:42:00.829Z,100333.55
2023-07-14T01:44:29.615Z,100332.83
2023-07-14T01:46:58.978Z,100331.98
2023-07-14T01:49:42.436Z,100331.83
2023-07-14T01:52:12.678Z,100336.66
2023-07-14T01:54:42.928Z,100338.02
2023-07-14T01:57:13.884Z,100342.01
2023-07-14T01:59:44.315Z,100351.02
2023-07-14T02:02:14.640Z,100358.32
2023-07-14T02:04:43.786Z,100364.51
2023-07-14T02:07:14.058Z,100364.48
2023-07-14T02:09:43.700Z,100370.36
2023-07-14T02:12:21.182Z,100376.83
2023-07-14T02:14:51.450Z,100375.85
2023-07-14T02:17:32.179Z,100381.97
2023-07-14T02:20:04.329Z,100381.05
2023-07-14T02:22:33.886Z,100374.73
2023-07-14T02:25:06.215Z,100381.61
2023-07-14T02:27:35.213Z,100388.86
2023-07-14T02:30:05.452Z,100386.05
2023-07-14T02:32:35.783Z,100387.56
2023-07-14T02:35:06.649Z,100391.31
2023-07-14T02:37:56.707Z,100388.42
2023-07-14T02:40:25.523Z,100394.33
2023-07-14T02:42:54.271Z,100390.42
2023-07-14T02:45:24.394Z,100395.00
2023-07-14T02:47:54.920Z,100390.41
2023-07-14T02:50:24.308Z,100391.09
2023-07-14T02:52:53.053Z,100399.41
2023-07-14T02:55:21.996Z,100399.05
2023-07-14T02:57:50.752Z,100402.22
2023-07-14T03:00:20.250Z,100400.98
2023-07-14T03:02:49.452Z,100410.19
2023-07-14T03:05:19.179Z,100406.71
2023-07-14T03:07:47.928Z,100405.70
2023-07-14T03:10:16.737Z,100408.73
2023-07-14T03:12:46.484Z,100412.47
2023-07-14T03:15:16.734Z,100413.55
2023-07-14T03:17:45.696Z,100414.39
2023-07-14T03:20:15.155Z,100412.67
2023-07-14T03:22:44.582Z,100424.52
2023-07-14T03:25:13.484Z,100429.22
2023-07-14T03:27:42.373Z,100423.55
2023-07-14T03:30:11.546Z,100427.13
2023-07-14T03:32:40.378Z,100432.31
2023-07-14T03:35:09.788Z,100444.95
2023-07-14T03:37:38.658Z,100435.05
2023-07-14T03:40:07.721Z,100434.45
2023-07-14T03:42:36.644Z,100437.86
2023-07-14T03:45:05.568Z,100435.15
2023-07-14T03:47:34.564Z,100442.23
2023-07-14T03:50:03.333Z,100443.39
2023-07-14T03:52:32.097Z,100442.20
2023-07-14T03:55:00.915Z,100444.76
2023-07-14T03:57:29.684Z,100449.73
2023-07-14T03:59:58.498Z,100450.97
2023-07-14T04:02:27.296Z,100457.23
2023-07-14T04:04:56.121Z,100456.52
2023-07-14T04:07:24.972Z,100455.41
2023-07-14T04:09:53.806Z,100456.58
2023-07-14T04:12:22.570Z,100451.50
2023-07-14T04:14:51.324Z,100456.03
2023-07-14T04:17:20.075Z,100459.64
2023-07-14T04:19:48.821Z,100462.30
2023-07-14T04:22:17.975Z,100467.23
2023-07-14T04:24:47.455Z,100475.17
2023-07-14T04:27:16.966Z,100474.72
2023-07-14T04:29:45.797Z,100471.55
2023-07-14T04:32:14.619Z,100469.91
2023-07-14T04:34:43.582Z,100468.91
2023-07-14T04:37:12.382Z,100470.66
2023-07-14T04:39:41.142Z,100472.27
2023-07-14T04:42:09.894Z,100472.41
2023-07-14T04:44:38.740Z,100475.28
2023-07-14T04:47:07.994Z,100475.42
2023-07-14T04:49:36.870Z,100478.75
2023-07-14T04:52:05.741Z,100483.23
2023-07-14T04:54:36.327Z,100484.20
2023-07-14T04:57:05.318Z,100484.14
2023-07-14T04:59:37.814Z,100481.23
2023-07-14T05:02:06.812Z,100481.78
2023-07-14T05:04:42.853Z,100486.59
2023-07-14T05:07:08.229Z,100481.83
2023-07-14T05:09:37.047Z,100480.14
2023-07-14T05:12:07.658Z,100485.44
2023-07-14T05:14:36.394Z,100479.81
2023-07-14T05:17:05.548Z,100486.30
2023-07-14T05:19:34.375Z,100485.09
2023-07-14T05:22:04.084Z,100483.69
2023-07-14T05:24:32.814Z,100481.16
2023-07-14T05:27:01.618Z,100475.97
2023-07-14T05:29:30.364Z,100471.38
2023-07-14T05:31:59.107Z,100470.72
2023-07-14T05:34:27.829Z,100472.72
2023-07-14T05:36:56.659Z,100488.16
2023-07-14T05:39:26.934Z,100487.56
2023-07-14T05:41:57.299Z,100489.05
2023-07-14T05:44:27.678Z,100484.55
2023-07-14T05:46:56.477Z,100489.58
2023-07-14T05:49:25.340Z,100499.27
2023-07-14T05:51:54.257Z,100500.62
2023-07-14T05:54:23.377Z,100499.44
2023-07-14T05:56:52.573Z,100503.25
2023-07-14T05:59:21.403Z,100501.07
2023-07-14T06:01:52.979Z,100502.25
2023-07-14T06:04:21.733Z,100497.80
2023-07-14T06:06:51.058Z,100501.71
2023-07-14T06:09:19.798Z,100505.42
2023-07-14T06:11:48.550Z,100508.77
2023-07-14T06:14:17.282Z,100514.25
2023-07-14T06:16:46.030Z,100508.73
2023-07-14T06:19:14.874Z,100509.58
2023-07-14T06:21:43.856Z,100511.09
2023-07-14T06:24:12.629Z,100507.89
2023-07-14T06:26:41.401Z,100511.81
2023-07-14T06:29:10.148Z,100499.86
2023-07-14T06:31:38.881Z,100500.03
2023-07-14T06:34:07.686Z,100507.95
2023-07-14T06:36:36.718Z,100512.14
2023-07-14T06:39:05.456Z,100519.98
2023-07-14T06:41:34.473Z,100515.78
2023-07-14T06:44:19.617Z,100511.55
2023-07-14T06:46:34.254Z,100515.92
2023-07-14T06:49:19.132Z,100522.52
2023-07-14T06:51:35.294Z,100516.16
2023-07-14T06:54:05.062Z,100516.92
2023-07-14T06:56:34.740Z,100518.76
2023-07-14T06:59:03.476Z,100512.87
2023-07-14T07:01:32.245Z,100515.06
2023-07-14T07:04:01.005Z,100510.84
2023-07-14T07:06:34.548Z,100520.56
2023-07-14T07:09:04.718Z,100514.01
2023-07-14T07:11:33.844Z,100515.36
2023-07-14T07:14:03.337Z,100517.92
2023-07-14T07:16:32.116Z,100519.65
2023-07-14T07:19:01.256Z,100521.84
2023-07-14T07:21:30.070Z,100519.15
2023-07-14T07:23:58.852Z,100516.33
2023-07-14T07:26:27.784Z,100517.30
2023-07-14T07:28:56.606Z,100514.64
2023-07-14T07:31:25.471Z,100518.00
2023-07-14T07:33:54.376Z,100510.42
2023-07-14T07:36:24.819Z,100511.28
2023-07-14T07:38:53.925Z,100507.77
2023-07-14T07:41:24.198Z,100508.42
2023-07-14T07:43:53.414Z,100508.94
2023-07-14T07:46:23.028Z,100508.06
2023-07-14T07:48:51.968Z,100510.70
2023-07-14T07:51:21.054Z,100515.74
2023-07-14T07:53:49.801Z,100513.72
2023-07-14T07:56:18.680Z,100513.67
2023-07-14T07:58:47.434Z,100506.55
2023-07-14T08:01:17.749Z,100508.56
2023-07-14T08:03:46.806Z,100505.16
2023-07-14T08:06:16.253Z,100507.92
2023-07-14T08:08:45.820Z,100506.76
2023-07-14T08:11:15.222Z,100506.03
2023-07-14T08:13:43.986Z,100508.90
2023-07-14T08:16:13.195Z,100507.38
2023-07-14T08:18:42.260Z,100511.08
2023-07-14T08:21:11.573Z,100512.25
2023-07-14T08:23:41.912Z,100520.06
2023-07-14T08:26:10.677Z,100513.83
2023-07-14T08:28:42.573Z,100512.09
2023-07-14T08:31:11.306Z,100508.09
2023-07-14T08:33:41.751Z,100507.29
2023-07-14T08:36:14.662Z,100510.82
2023-07-14T08:38:43.745Z,100512.21
2023-07-14T08:41:32.107Z,100508.29
2023-07-14T08:44:02.356Z,100512.70
2023-07-14T08:46:42.616Z,100512.19
2023-07-14T08:49:18.754Z,100506.78
2023-07-14T08:51:47.721Z,100503.06
2023-07-14T08:54:17.974Z,100500.10
2023-07-14T08:56:47.450Z,100500.73
2023-07-14T08:59:17.743Z,100502.77
2023-07-14T09:01:56.171Z,100506.77
2023-07-14T09:04:26.486Z,100501.56
2023-07-14T09:06:55.575Z,100506.95
2023-07-14T09:09:34.903Z,100498.11
2023-07-14T09:12:20.067Z,100494.95
2023-07-14T09:14:53.369Z,100502.52
2023-07-14T09:17:33.408Z,100496.42
2023-07-14T09:20:22.693Z,100496.27
2023-07-14T09:22:58.329Z,100505.52
2023-07-14T09:25:33.921Z,100498.63
2023-07-14T09:28:03.272Z,100493.99
2023-07-14T09:30:34.725Z,100496.83
2023-07-14T09:33:04.714Z,100496.86
2023-07-14T09:35:33.513Z,100495.34
2023-07-14T09:38:07.721Z,100489.45
2023-07-14T09:40:37.877Z,100483.28
2023-07-14T09:43:07.310Z,100479.82
2023-07-14T09:45:37.437Z,100479.49
2023-07-14T09:48:07.741Z,100476.27
2023-07-14T09:50:40.964Z,100469.34
2023-07-14T09:53:10.691Z,100463.75
2023-07-14T09:55:46.969Z,100461.99
2023-07-14T09:58:17.105Z,100456.53
2023-07-14T10:00:47.459Z,100452.39
2023-07-14T10:03:22.792Z,100449.63
2023-07-14T10:05:50.019Z,100449.63
2023-07-14T10:08:27.107Z,100451.67
2023-07-14T10:11:03.416Z,100442.56
2023-07-14T10:13:34.248Z,100444.48
2023-07-14T10:16:04.866Z,100436.05
2023-07-14T10:18:35.210Z,100438.98
2023-07-14T10:21:07.363Z,100440.37
2023-07-14T10:23:37.241Z,100439.52
2023-07-14T10:26:08.399Z,100441.88
2023-07-14T10:28:38.757Z,100428.83
2023-07-14T10:31:15.390Z,100427.99
2023-07-14T10:33:47.884Z,100421.63
2023-07-14T10:36:24.952Z,100420.23
2023-07-14T10:38:55.568Z,100419.75
2023-07-14T10:41:26.077Z,100417.53
2023-07-14T10:44:01.051Z,100412.55
2023-07-14T10:46:31.309Z,100406.64
2023-07-14T10:49:01.570Z,100402.72
2023-07-14T10:51:33.724Z,100401.25
2023-07-14T10:54:07.781Z,100393.03
2023-07-14T10:56:38.216Z,100393.45
2023-07-14T10:59:14.139Z,100382.93
2023-07-14T11:01:51.262Z,100386.52
2023-07-14T11:04:21.574Z,100381.70
2023-07-14T11:06:52.713Z,100384.03
2023-07-14T11:09:21.545Z,100383.41
2023-07-14T11:12:08.123Z,100377.46
2023-07-14T11:14:47.316Z,100378.10
2023-07-14T11:17:26.808Z,100373.82
2023-07-14T11:19:59.836Z,100366.52
2023-07-14T11:22:34.403Z,100364.33
2023-07-14T11:25:06.549Z,100356.06
2023-07-14T11:27:39.536Z,100348.59
2023-07-14T11:30:15.895Z,100351.25
2023-07-14T11:32:50.534Z,100342.11
2023-07-14T11:35:21.005Z,100345.32
2023-07-14T11:37:51.278Z,100338.24
2023-07-14T11:40:24.309Z,100347.17
2023-07-14T11:42:54.628Z,100337.94
2023-07-14T11:45:24.899Z,100346.51
2023-07-14T11:47:54.143Z,100345.09
2023-07-14T11:50:39.748Z,100340.28
2023-07-14T11:53:10.820Z,100338.70
2023-07-14T11:55:41.548Z,100336.34
2023-07-14T11:58:20.802Z,100331.26
2023-07-14T12:00:51.059Z,100327.92
2023-07-14T12:03:32.691Z,100328.33
2023-07-14T12:05:53.166Z,100323.47
2023-07-14T12:08:25.375Z,100324.64
2023-07-14T12:10:55.651Z,100326.58
2023-07-14T12:13:25.930Z,100327.66
2023-07-14T12:15:58.300Z,100321.13
2023-07-14T12:18:35.312Z,100321.13
2023-07-14T12:21:05.552Z,100312.98
2023-07-14T12:23:36.657Z,100310.97
2023-07-14T12:26:07.828Z,100306.30
2023-07-14T12:28:38.165Z,100306.48
2023-07-14T12:31:08.404Z,100301.19
2023-07-14T12:33:37.209Z,100295.31
2023-07-14T12:36:06.138Z,100291.75
2023-07-14T12:38:35.008Z,100287.42
2023-07-14T12:41:05.401Z,100282.14
2023-07-14T12:43:44.873Z,100283.41
2023-07-14T12:46:15.178Z,100279.18
2023-07-14T12:48:44.374Z,100273.27
2023-07-14T12:51:19.315Z,100276.98
2023-07-14T12:54:01.930Z,100272.69
2023-07-14T12:56:31.818Z,100264.50
2023-07-14T12:59:01.375Z,100264.75
2023-07-14T13:01:35.523Z,100261.70
2023-07-14T13:04:05.244Z,100259.89
2023-07-14T13:06:35.912Z,100257.10
2023-07-14T13:09:12.312Z,100259.27
2023-07-14T13:11:42.644Z,100258.63
2023-07-14T13:14:13.019Z,100246.11
2023-07-14T13:16:45.294Z,100248.03
2023-07-14T13:19:24.627Z,100250.24
2023-07-14T13:21:53.557Z,100254.23
2023-07-14T13:24:26.974Z,100251.09
2023-07-14T13:26:58.709Z,100244.42
2023-07-14T13:29:29.075Z,100234.48
2023-07-14T13:31:59.596Z,100235.67
2023-07-14T13:34:32.499Z,100235.15
2023-07-14T13:37:09.924Z,100235.56
2023-07-14T13:39:44.810Z,100232.00
2023-07-14T13:42:24.926Z,100228.94
2023-07-14T13:44:56.986Z,100226.44
2023-07-14T13:47:28.871Z,100223.39
2023-07-14T13:50:00.270Z,100224.23
2023-07-14T13:52:31.520Z,100227.14
2023-07-14T13:55:05.100Z,100220.27
2023-07-14T13:57:33.916Z,100217.74
2023-07-14T14:00:03.670Z,100211.33
2023-07-14T14:02:38.412Z,100214.14
2023-07-14T14:05:12.145Z,100208.44
2023-07-14T14:07:41.002Z,100202.02
2023-07-14T14:10:13.813Z,100202.75
2023-07-14T14:12:45.072Z,100196.85
2023-07-14T14:15:18.400Z,100191.41
2023-07-14T14:17:49.327Z,100191.42
2023-07-14T14:20:19.797Z,100188.25
2023-07-14T14:22:49.250Z,100195.25
2023-07-14T14:25:19.733Z,100187.13
2023-07-14T14:27:50.065Z,100190.26
2023-07-14T14:30:19.598Z,100184.92
2023-07-14T14:32:49.810Z,100189.83
2023-07-14T14:35:22.971Z,100189.46
2023-07-14T14:37:53.395Z,100181.27
2023-07-14T14:40:22.175Z,100184.06
2023-07-14T14:42:51.017Z,100181.95
2023-07-14T14:45:21.438Z,100189.28
2023-07-14T14:47:51.841Z,100184.38
2023-07-14T14:50:22.529Z,100172.13
2023-07-14T14:52:51.405Z,100170.33
2023-07-14T14:55:21.994Z,100170.80
2023-07-14T14:57:52.263Z,100173.94
2023-07-14T15:00:23.138Z,100174.62
2023-07-14T15:02:52.516Z,100163.98
2023-07-14T15:05:22.211Z,100160.74
2023-07-14T15:07:51.949Z,100155.97
2023-07-14T15:10:21.880Z,100151.75
2023-07-14T15:12:51.565Z,100154.75
2023-07-14T15:15:38.147Z,100153.09
2023-07-14T15:18:08.933Z,100146.66
2023-07-14T15:20:40.585Z,100139.11
2023-07-14T15:23:15.978Z,100141.22
2023-07-14T15:25:48.641Z,100134.29
2023-07-14T15:28:18.955Z,100140.14
2023-07-14T15:30:51.224Z,100141.91
2023-07-14T15:33:20.728Z,100136.67
2023-07-14T15:35:57.811Z,100130.58
2023-07-14T15:38:23.672Z,100132.80
2023-07-14T15:40:52.650Z,100132.23
2023-07-14T15:43:24.654Z,100136.85
2023-07-14T15:45:58.845Z,100138.36
2023-07-14T15:48:41.931Z,100132.15
2023-07-14T15:51:19.226Z,100125.06
2023-07-14T15:53:48.053Z,100128.50
2023-07-14T15:56:17.944Z,100123.75
2023-07-14T15:58:46.766Z,100122.77
2023-07-14T16:01:28.241Z,100129.28
2023-07-14T16:03:48.263Z,100124.59
2023-07-14T16:06:17.765Z,100128.22
2023-07-14T16:08:49.123Z,100123.98
2023-07-14T16:11:22.341Z,100118.64
2023-07-14T16:13:52.060Z,100113.47
2023-07-14T16:16:21.282Z,100113.49
2023-07-14T16:18:50.231Z,100114.70
2023-07-14T16:21:26.805Z,100113.33
2023-07-14T16:23:56.494Z,100113.47
2023-07-14T16:26:25.685Z,100106.00
2023-07-14T16:28:55.513Z,100112.60
2023-07-14T16:31:26.178Z,100108.34
2023-07-14T16:33:55.012Z,100110.02
2023-07-14T16:36:27.906Z,100104.18
2023-07-14T16:38:58.142Z,100103.54
2023-07-14T16:41:27.283Z,100106.76
2023-07-14T16:43:57.284Z,100106.22
2023-07-14T16:46:27.562Z,100105.69
2023-07-14T16:48:56.375Z,100105.08
2023-07-14T16:51:27.148Z,100104.95
2023-07-14T16:54:00.269Z,100100.12
2023-07-14T16:56:29.290Z,100099.59
2023-07-14T16:58:58.332Z,100104.19
2023-07-14T17:01:27.541Z,100090.88
2023-07-14T17:03:56.410Z,100087.92
2023-07-14T17:06:42.091Z,100086.88
2023-07-14T17:08:59.907Z,100085.69
2023-07-14T17:11:30.275Z,100082.20
2023-07-14T17:13:59.389Z,100081.84
2023-07-14T17:16:28.235Z,100087.27
2023-07-14T17:18:57.050Z,100087.33
2023-07-14T17:21:25.840Z,100085.73
2023-07-14T17:23:57.573Z,100089.11
2023-07-14T17:26:24.876Z,100087.97
2023-07-14T17:28:53.630Z,100090.55
2023-07-14T17:31:22.437Z,100089.69
2023-07-14T17:33:51.141Z,100084.36
2023-07-14T17:36:21.649Z,100087.91
2023-07-14T17:38:50.564Z,100089.36
2023-07-14T17:41:19.340Z,100088.88
2023-07-14T17:43:48.072Z,100088.09
2023-07-14T17:46:17.365Z,100089.05
2023-07-14T17:48:46.203Z,100080.72
2023-07-14T17:51:15.054Z,100081.54
2023-07-14T17:53:43.770Z,100085.45
2023-07-14T17:56:13.436Z,100082.78
2023-07-14T17:58:42.314Z,100079.20
2023-07-14T18:01:12.606Z,100085.33
2023-07-14T18:03:46.500Z,100078.10
2023-07-14T18:06:16.857Z,100076.00
2023-07-14T18:08:45.606Z,100079.27
2023-07-14T18:11:16.284Z,100073.80
2023-07-14T18:13:45.322Z,100070.79
2023-07-14T18:16:14.350Z,100075.20
2023-07-14T18:18:44.574Z,100082.02
2023-07-14T18:21:13.853Z,100073.92
2023-07-14T18:23:43.013Z,100072.16
2023-07-14T18:26:13.289Z,100069.55
2023-07-14T18:28:42.621Z,100072.16
2023-07-14T18:31:17.379Z,100071.24
2023-07-14T18:33:48.066Z,100068.41
2023-07-14T18:36:16.818Z,100068.98
2023-07-14T18:38:45.595Z,100069.06
2023-07-14T18:41:16.247Z,100069.82
2023-07-14T18:43:45.191Z,100072.44
2023-07-14T18:46:14.436Z,100067.86
2023-07-14T18:48:43.178Z,100064.27
2023-07-14T18:51:14.205Z,100065.91
2023-07-14T18:53:43.148Z,100063.89
2023-07-14T18:56:12.409Z,100059.83
2023-07-14T18:58:41.377Z,100064.39
2023-07-14T19:01:15.915Z,100065.16
2023-07-14T19:03:47.609Z,100065.55
2023-07-14T19:06:18.411Z,100069.70
2023-07-14T19:08:47.149Z,100072.41
2023-07-14T19:11:17.459Z,100069.64
2023-07-14T19:13:46.936Z,100074.11
2023-07-14T19:16:19.594Z,100070.03
2023-07-14T19:18:48.534Z,100066.81
2023-07-14T19:21:18.988Z,100069.34
2023-07-14T19:23:47.749Z,100069.47
2023-07-14T19:26:16.734Z,100064.57
2023-07-14T19:28:47.244Z,100063.16
2023-07-14T19:31:21.777Z,100061.78
2023-07-14T19:33:51.220Z,100063.73
2023-07-14T19:36:20.002Z,100064.88
2023-07-14T19:38:48.758Z,100063.69
2023-07-14T19:41:17.843Z,100058.38
2023-07-14T19:43:48.949Z,100059.47
2023-07-14T19:46:18.015Z,100060.23
2023-07-14T19:48:47.021Z,100056.91
2023-07-14T19:51:26.152Z,100055.20
2023-07-14T19:53:55.274Z,100055.10
2023-07-14T19:56:26.143Z,100052.98
2023-07-14T19:58:55.464Z,100054.02
2023-07-14T20:01:24.457Z,100053.09
2023-07-14T20:03:53.432Z,100045.73
2023-07-14T20:06:24.675Z,100048.44
2023-07-14T20:08:54.739Z,100051.52
2023-07-14T20:11:23.897Z,100053.56
2023-07-14T20:13:52.723Z,100053.95
2023-07-14T20:16:23.103Z,100050.79
2023-07-14T20:18:52.968Z,100058.17
2023-07-14T20:21:26.525Z,100058.85
2023-07-14T20:23:56.842Z,100059.50
2023-07-14T20:26:25.878Z,100063.73
2023-07-14T20:28:54.647Z,100062.39
2023-07-14T20:31:23.854Z,100060.05
2023-07-14T20:33:56.389Z,100064.41
2023-07-14T20:36:26.105Z,100060.59
2023-07-14T20:38:56.699Z,100059.93
2023-07-14T20:41:26.987Z,100060.44
2023-07-14T20:43:55.806Z,100055.23
2023-07-14T20:46:28.931Z,100058.62
2023-07-14T20:49:15.175Z,100060.29
2023-07-14T20:51:29.519Z,100059.45
2023-07-14T20:53:58.926Z,100067.31
2023-07-14T20:56:27.727Z,100063.48
2023-07-14T20:58:56.486Z,100068.00
2023-07-14T21:01:27.211Z,100060.78
2023-07-14T21:03:55.999Z,100066.77
2023-07-14T21:06:25.843Z,100067.30
2023-07-14T21:08:55.536Z,100067.95
2023-07-14T21:11:26.047Z,100068.11
2023-07-14T21:13:56.260Z,100065.58
2023-07-14T21:16:26.299Z,100065.91
2023-07-14T21:18:56.296Z,100062.39
2023-07-14T21:21:29.300Z,100068.20
2023-07-14T21:23:59.789Z,100067.39
2023-07-14T21:26:36.152Z,100062.67
2023-07-14T21:29:06.612Z,100062.14
2023-07-14T21:31:40.621Z,100055.28
2023-07-14T21:34:16.217Z,100056.25
2023-07-14T21:36:45.212Z,100053.94
2023-07-14T21:39:14.917Z,100050.56
2023-07-14T21:41:44.172Z,100056.55
2023-07-14T21:44:14.395Z,100050.86
2023-07-14T21:46:44.322Z,100054.87
2023-07-14T21:49:17.289Z,100056.84
2023-07-14T21:51:46.597Z,100054.85
2023-07-14T21:54:17.225Z,100060.77
2023-07-14T21:56:48.076Z,100055.59
2023-07-14T21:59:19.608Z,100056.06
2023-07-14T22:01:51.933Z,100058.36
2023-07-14T22:04:21.798Z,100056.22
2023-07-14T22:06:52.557Z,100055.69
2023-07-14T22:09:23.197Z,100057.03
2023-07-14T22:11:52.390Z,100056.03
2023-07-14T22:14:22.590Z,100049.33
2023-07-14T22:16:51.424Z,100048.30
2023-07-14T22:19:20.255Z,100050.95
2023-07-14T22:21:49.114Z,100044.92
2023-07-14T22:24:20.096Z,100044.89
2023-07-14T22:26:48.940Z,100041.38
2023-07-14T22:29:18.564Z,100043.22
2023-07-14T22:31:49.012Z,100048.27
2023-07-14T22:34:20.359Z,100048.93
2023-07-14T22:36:49.140Z,100045.89
2023-07-14T22:39:19.874Z,100049.55
2023-07-14T22:41:50.220Z,100048.56
2023-07-14T22:44:19.162Z,100045.05
2023-07-14T22:46:48.520Z,100047.19
2023-07-14T22:49:17.337Z,100048.00
2023-07-14T22:51:47.831Z,100046.59
2023-07-14T22:54:17.475Z,100049.08
2023-07-14T22:56:46.426Z,100047.09
2023-07-14T22:59:15.168Z,100045.41
2023-07-14T23:01:44.083Z,100042.71
2023-07-14T23:04:13.500Z,100043.86
2023-07-14T23:06:42.364Z,100045.84
2023-07-14T23:09:12.288Z,100039.47
2023-07-14T23:11:41.900Z,100040.62
2023-07-14T23:14:12.115Z,100041.92
2023-07-14T23:16:40.957Z,100040.73
2023-07-14T23:19:10.617Z,100044.09
2023-07-14T23:21:40.397Z,100045.57
2023-07-14T23:24:10.657Z,100037.19
2023-07-14T23:26:39.465Z,100037.60
2023-07-14T23:29:08.296Z,100038.28
2023-07-14T23:31:38.466Z,100039.09
2023-07-14T23:34:13.638Z,100029.21
2023-07-14T23:36:42.573Z,100020.78
2023-07-14T23:39:11.364Z,100020.59
2023-07-14T23:41:40.111Z,100018.91
2023-07-14T23:44:10.384Z,100010.71
2023-07-14T23:46:39.310Z,100010.02
2023-07-14T23:49:09.775Z,100014.17
2023-07-14T23:51:39.773Z,100017.14
2023-07-14T23:54:09.367Z,100021.14
2023-07-14T23:56:38.251Z,100014.13
2023-07-14T23:59:07.119Z,100018.77
